Terminal Aerodrome Forecast
Issued by NWS Spokane, WA

Home | Current Version | Previous Version | Text Only | Print | Product List | Glossary On
Versions: 1 2 3 4 5 6 7 8 9 10 11 12 13 14 15 16 17 18 19
000
FTUS46 KOTX 180539
TAFLWS
TAF
KLWS 180539Z 1806/1906 25018G26KT P6SM SCT040 OVC060
     FM180900 25012G20KT P6SM OVC070
      TEMPO 1809/1813 -RA OVC050
     FM181500 24010KT P6SM -SN OVC040
     FM181800 26014G21KT P6SM -SN BKN015
     FM182200 29009KT P6SM VCSH SCT015 BKN050=

USA.gov is the U.S. government's official web portal to all federal, state and local government web resources and services.